WetterOnline ( https://www.wetteronline.de )

Wetter aktuell Hohenhameln

Aktuelles Wetter: Braunschweig/Flughafen (88m)

6-stündlich | Neueste Meldungen
Ortszeit Temperatur Wetter
Mi, 03.03. 19:00 11.4° C wolkenlos
Mi, 03.03. 13:00 13.3° C -
Mi, 03.03. 7:00 1.2° C -
Mi, 03.03. 1:00 3.6° C -
Di, 02.03. 19:00 7.7° C bedeckt
Di, 02.03. 13:00 5.6° C wolkig
Di, 02.03. 7:00 0.2° C Nebel
Di, 02.03. 1:00 1.5° C Nebel
Ortszeit Temperatur Wetter
Mi, 03.03. 20:00 10.5° C fast wolkenlos
Mi, 03.03. 19:50 10° C -
Mi, 03.03. 19:40 10.5° C leicht bewölkt
Mi, 03.03. 19:30 11.0° C wolkig
Mi, 03.03. 19:20 11.0° C wolkig
Mi, 03.03. 19:10 11.2° C leicht bewölkt
Mi, 03.03. 19:00 11.4° C wolkenlos
Mi, 03.03. 18:30 10.9° C fast wolkenlos
Mi, 03.03. 18:00 11.9° C wolkenlos
Mi, 03.03. 17:30 13.1° C leicht bewölkt
Mi, 03.03. 17:00 14.0° C wolkig
Mi, 03.03. 16:30 14.4° C bedeckt
Ortszeit Relative Feuchte Sichtweite
Mi, 03.03. 19:00 66% 21 km
Mi, 03.03. 13:00 57% 29 km
Mi, 03.03. 7:00 97% 10 km
Mi, 03.03. 1:00 94% 10 km
Di, 02.03. 19:00 84% 14 km
Di, 02.03. 13:00 79% 16 km
Di, 02.03. 7:00 100% 0.3 km
Di, 02.03. 1:00 100% 0.5 km
Ortszeit Relative Feuchte Sichtweite
Mi, 03.03. 20:00 71% 14 km
Mi, 03.03. 19:50 71% >10 km
Mi, 03.03. 19:40 71% -
Mi, 03.03. 19:30 68% 17 km
Mi, 03.03. 19:20 68% -
Mi, 03.03. 19:10 67% -
Mi, 03.03. 19:00 66% 21 km
Mi, 03.03. 18:30 67% 26 km
Mi, 03.03. 18:00 65% 27 km
Mi, 03.03. 17:30 60% 30 km
Mi, 03.03. 17:00 56% 29 km
Mi, 03.03. 16:30 55% 28 km
Ortszeit Niederschlagsmenge Niederschlagsart
Mi, 03.03. 19:00 0.0 l/m2 in 12 Std. -
Mi, 03.03. 13:00 0.0 l/m2 in 6 Std. -
Mi, 03.03. 7:00 0.0 l/m2 in 12 Std. -
Mi, 03.03. 1:00 0.0 l/m2 in 6 Std. -
Di, 02.03. 19:00 0.0 l/m2 in 12 Std. -
Di, 02.03. 13:00 0.0 l/m2 in 6 Std. -
Di, 02.03. 7:00 0.0 l/m2 in 12 Std. -
Di, 02.03. 1:00 0.0 l/m2 in 6 Std. -
Ortszeit Niederschlagsmenge Niederschlagsart
Mi, 03.03. 20:00 0.0 l/m2 in 1 Std. -
Mi, 03.03. 19:50 keine Meldung -
Mi, 03.03. 19:40 keine Meldung -
Mi, 03.03. 19:30 0.0 l/m2 in 1 Std. -
Mi, 03.03. 19:20 keine Meldung -
Mi, 03.03. 19:10 keine Meldung -
Mi, 03.03. 19:00 0.0 l/m2 in 1 Std. -
Mi, 03.03. 18:30 0.0 l/m2 in 1 Std. -
Mi, 03.03. 18:00 0.0 l/m2 in 1 Std. -
Mi, 03.03. 17:30 0.0 l/m2 in 1 Std. -
Mi, 03.03. 17:00 0.0 l/m2 in 1 Std. -
Mi, 03.03. 16:30 0.0 l/m2 in 1 Std. -
Ortszeit Stärke Spitze Richtung
km/h Bft. km/h Grad Sektor
Mi, 03.03. 19:00 7 2 25 260° W
Mi, 03.03. 13:00 11 2 22 220° SW
Mi, 03.03. 7:00 4 1 22 150° SO
Mi, 03.03. 1:00 9 2 17 160° S
Di, 02.03. 19:00 9 2 35 130° SO
Di, 02.03. 13:00 7 2 14 80° O
Di, 02.03. 7:00 9 2 15 140° SO
Di, 02.03. 1:00 11 2 22 150° SO
Ortszeit Stärke Spitze Richtung
km/h Bft. km/h Grad Sektor
Mi, 03.03. 20:00 11 2 17 270° W
Mi, 03.03. 19:50 13 3 - 280° W
Mi, 03.03. 19:40 9 2 - 260° W
Mi, 03.03. 19:30 9 2 17 270° W
Mi, 03.03. 19:20 9 2 - 270° W
Mi, 03.03. 19:10 9 2 - 260° W
Mi, 03.03. 19:00 7 2 14 260° W
Mi, 03.03. 18:30 7 2 14 250° W
Mi, 03.03. 18:00 6 1 13 240° SW
Mi, 03.03. 17:30 7 2 14 230° SW
Mi, 03.03. 17:00 7 2 14 240° SW
Mi, 03.03. 16:30 9 2 15 240° SW
Ortszeit Untergrenze Bedeckung Gattung
total tief tief mittel hoch
Mi, 03.03. 19:00 3300 m 0/8 0/8 - - -
Mi, 03.03. 13:00 - - - - - -
Mi, 03.03. 7:00 - - - - - -
Mi, 03.03. 1:00 - - - - - -
Di, 02.03. 19:00 - 8/8 - - - -
Di, 02.03. 13:00 210 m 8/8 2/8 - - -
Di, 02.03. 7:00 <30 m 8/8 0/8 - - -
Di, 02.03. 1:00 30 m 8/8 8/8 - - -
Ortszeit Bedeckungsgrad in Achtel und Wolkenuntergrenze
Mi, 03.03. 20:00 1(3300m)
Mi, 03.03. 19:50 keine Wolken(unter 1500 m)
Mi, 03.03. 19:40 2(3300m)
Mi, 03.03. 19:30 6(3300m)
Mi, 03.03. 19:20 6(3300m)
Mi, 03.03. 19:10 4(3300m)
Mi, 03.03. 19:00 1(3300m)
Mi, 03.03. 18:30 1(8400m)
Mi, 03.03. 18:00 keine Wolken
Mi, 03.03. 17:30 2(3900m)
Mi, 03.03. 17:00 7(3900m) 7(9000m)
Mi, 03.03. 16:30 8(3300m)
Ortszeit Luftdruck NN (hPa) Tendenz (hPa in 3 Std.)
Mi, 03.03. 19:00 1024 - 0,7
Mi, 03.03. 13:00 1027 - 1,3
Mi, 03.03. 7:00 1029 - 0,6
Mi, 03.03. 1:00 1031 - 0,7
Di, 02.03. 19:00 1032 - 0,4
Di, 02.03. 13:00 1034 - 0,8
Di, 02.03. 7:00 1035 + 0,1
Di, 02.03. 1:00 1035 - 0,1
Ortszeit Luftdruck NN (hPa) Tendenz (hPa in 3 Std.)
Mi, 03.03. 20:00 1024 - 0,2
Mi, 03.03. 19:50 1023 keine Meldung
Mi, 03.03. 19:40 1024 keine Meldung
Mi, 03.03. 19:30 1024 - 0,3
Mi, 03.03. 19:20 1024 keine Meldung
Mi, 03.03. 19:10 1024 keine Meldung
Mi, 03.03. 19:00 1024 - 0,7
Mi, 03.03. 18:30 1024 - 1,1
Mi, 03.03. 18:00 1024 - 1,4
Mi, 03.03. 17:30 1024 - 1,9
Mi, 03.03. 17:00 1024 - 1,8
Mi, 03.03. 16:30 1024 - 2,1
Ortszeit Schneehöhe (cm)
Mi, 03.03. 19:00 0
Mi, 03.03. 13:00 0
Mi, 03.03. 7:00 0
Mi, 03.03. 1:00 0
Di, 02.03. 19:00 0
Di, 02.03. 13:00 0
Di, 02.03. 7:00 0
Di, 02.03. 1:00 0
Ortszeit Schneehöhe (cm)
Mi, 03.03. 20:00 0
Mi, 03.03. 19:50 -
Mi, 03.03. 19:40 0
Mi, 03.03. 19:30 0
Mi, 03.03. 19:20 0
Mi, 03.03. 19:10 0
Mi, 03.03. 19:00 0
Mi, 03.03. 18:30 0
Mi, 03.03. 18:00 0
Mi, 03.03. 17:30 0
Mi, 03.03. 17:00 0
Mi, 03.03. 16:30 0
Link zu dieser Seite / Seite empfehlen

Das Wetter in ...